Weather at La Pelada Airport

Public forecast

Using degrees Celsius for public forecast. Weather courtesy of forecast.io.

Closest aviation weather report (METAR) to La Pelada Airport

Closest report is Rosario Islas Malvinas International Airport, 117.1 nm (216.8 km) S.

2024/07/17 12:00 (retrieved 1 hour ago)

SAAR 171200Z 34002KT 3000 PRFG NSC 02/02 Q1025

Closest aviation forecast (TAF) to La Pelada Airport

Closest forecast is Rosario Islas Malvinas International Airport, 117.1 nm (216.8 km) S.

2024/07/17 12:00 (retrieved 1 hour ago)

TAF SAAR 171100Z 1712/1812 VRB03KT 4000 BR NSC TX19/1718Z TN04/1712Z TEMPO 1712/1713 0700 BCFG BECMG 1713/1715 02010KT CAVOK TEMPO 1807/1811 5000 BR NSC